Barter Island LRRS Airport Barter Island Lrrs US
ICAO: PABA
IATA:
Category: Medium
Scheduled Services:

Elevation: 2 ft
TransAlt. 18000 ft.

Airport Communications:
AWOS 3:30.8
ANCHORAGE CNTR:120.6
CTAF:126.2
DEADHORSE RDO:122
RDO:126.2

PABA Zoom In..

Runways:

(A) RW 07 length 4818 ft width 100 ft
---- / hdg 66

(B) RW 25 length 4818 ft width 100 ft
---- / hdg 246

Location; PABA
Day. 14 / Time. 13.52 Zulu
* Altimeter: 29.92
* Temperature: -02° c. -28.4°f.
* Wind from: 270° Speed 10 kn.
Dewpoint: -03° c.
Visibility: 5 Statute Miles.
Clouds: Overcast 300 ft.
Conditions: Light Snow.Conditions: Mist.

PABA 141352Z AUTO 27010KT 5SM -SN BR OVC003 M02/M03 A2992 RMK AO2 SNB04 SLP116 P0000 T10221028 FZRANO TSNO


Wind From 270°
Speed 10 kn.

 
 
jpsmedia.com for Web Design worldairports.se 2018   terms of use